Time;durP1;ratioP1;P1;durP2;ratioP2;P2;SDS_P1;SDS_P2;PMS_P1;PMS_P2;Temp;Humidity;BMP_temperature;BMP_pressure;BME280_temperature;BME280_humidity;BME280_pressure;Samples;Min_cycle;Max_cycle;Signal;HPM_P1;HPM_P2
2023/03/20 00:01:17;;;;;;;18.53;13.80;;;9.00;99.90;;;;;;5035360;28;20286;-50
2023/03/20 00:03:43;;;;;;;24.70;13.77;;;9.00;99.90;;;;;;5035366;28;20262;-50
2023/03/20 00:06:18;;;;;;;19.00;13.93;;;9.10;99.90;;;;;;5035038;28;20642;-50
2023/03/20 00:08:45;;;;;;;22.20;13.47;;;9.00;99.90;;;;;;5035268;28;20159;-50
2023/03/20 00:11:25;;;;;;;19.37;13.57;;;9.00;99.90;;;;;;5034903;28;20234;-50
2023/03/20 00:13:51;;;;;;;18.43;12.77;;;9.00;99.90;;;;;;5035014;28;20251;-50
2023/03/20 00:16:17;;;;;;;17.00;13.37;;;9.10;99.90;;;;;;5035177;28;20187;-51
2023/03/20 00:18:43;;;;;;;18.37;13.17;;;9.00;99.90;;;;;;5034827;28;20176;-50
2023/03/20 00:21:16;;;;;;;20.07;13.17;;;9.00;99.90;;;;;;5034933;28;20311;-52
2023/03/20 00:23:42;;;;;;;18.37;12.73;;;9.00;99.90;;;;;;5036652;28;20189;-45
2023/03/20 00:26:17;;;;;;;17.87;12.70;;;9.00;99.90;;;;;;5034742;28;20540;-46
2023/03/20 00:28:47;;;;;;;18.73;12.87;;;9.00;99.90;;;;;;5034538;28;20246;-46
2023/03/20 00:31:28;;;;;;;18.97;12.63;;;9.00;99.90;;;;;;5034820;28;20604;-47
2023/03/20 00:33:56;;;;;;;17.17;12.67;;;9.00;99.90;;;;;;5034804;28;20201;-45
2023/03/20 00:36:23;;;;;;;18.10;12.73;;;9.00;99.90;;;;;;5034464;28;20184;-46
2023/03/20 00:38:49;;;;;;;16.57;11.97;;;9.00;99.90;;;;;;5034725;28;20271;-44
2023/03/20 00:41:24;;;;;;;15.77;12.33;;;9.00;99.90;;;;;;5034544;28;20220;-47
2023/03/20 00:43:55;;;;;;;17.33;12.40;;;9.00;99.90;;;;;;5033580;28;20543;-49
2023/03/20 00:46:21;;;;;;;18.90;12.97;;;8.90;99.90;;;;;;5034528;28;20689;-48
2023/03/20 00:48:47;;;;;;;17.13;11.90;;;8.90;99.90;;;;;;5034626;28;20179;-46
2023/03/20 00:51:13;;;;;;;18.57;12.30;;;10.50;99.90;;;;;;5034208;28;20209;-48
2023/03/20 00:53:39;;;;;;;18.43;12.90;;;8.90;99.90;;;;;;5034283;28;20188;-45
2023/03/20 00:56:05;;;;;;;17.47;11.97;;;8.90;99.90;;;;;;5034152;28;20184;-46
2023/03/20 00:58:31;;;;;;;19.93;12.10;;;8.90;99.90;;;;;;5033989;28;20185;-45
2023/03/20 01:00:57;;;;;;;20.63;13.87;;;8.90;99.90;;;;;;5033930;28;20216;-44
2023/03/20 01:03:25;;;;;;;20.67;13.30;;;8.90;99.90;;;;;;5033983;28;20187;-44
2023/03/20 01:05:51;;;;;;;19.80;13.50;;;8.90;99.90;;;;;;5033975;28;20254;-47
2023/03/20 01:08:22;;;;;;;22.60;13.37;;;8.80;99.90;;;;;;5034528;28;20198;-49
2023/03/20 01:10:52;;;;;;;20.43;13.57;;;8.80;99.90;;;;;;5033832;28;20294;-50
2023/03/20 01:13:25;;;;;;;21.87;15.17;;;8.80;99.90;;;;;;5034181;28;20255;-50
2023/03/20 01:15:52;;;;;;;21.03;13.43;;;8.80;99.90;;;;;;5033873;28;20179;-49
2023/03/20 01:18:19;;;;;;;19.03;13.37;;;8.80;99.90;;;;;;5033787;28;20662;-49
2023/03/20 01:20:47;;;;;;;20.73;13.70;;;8.70;99.90;;;;;;5033958;28;20230;-51
2023/03/20 01:23:13;;;;;;;19.43;12.97;;;8.70;99.90;;;;;;5034227;28;20640;-44
2023/03/20 01:25:39;;;;;;;19.07;13.07;;;8.70;99.90;;;;;;5033914;28;20180;-46
2023/03/20 01:28:22;;;;;;;18.63;13.60;;;8.60;99.90;;;;;;5033613;28;20562;-42
2023/03/20 01:30:48;;;;;;;22.53;13.47;;;8.60;99.90;;;;;;5033804;28;20254;-45
2023/03/20 01:33:19;;;;;;;20.67;13.63;;;8.60;99.90;;;;;;5033542;28;20177;-46
2023/03/20 01:35:46;;;;;;;21.17;13.20;;;8.50;99.90;;;;;;5033751;28;20549;-45
2023/03/20 01:38:22;;;;;;;21.13;12.97;;;8.50;99.90;;;;;;5033766;28;20181;-44
2023/03/20 01:41:13;;;;;;;21.63;13.70;;;8.50;99.90;;;;;;5033541;28;20266;-45
2023/03/20 01:43:39;;;;;;;18.27;12.67;;;8.40;99.90;;;;;;5033545;28;20650;-44
2023/03/20 01:46:08;;;;;;;20.10;13.07;;;8.40;99.90;;;;;;5033435;28;20182;-44
2023/03/20 01:48:48;;;;;;;15.57;11.87;;;8.40;99.90;;;;;;5033363;28;20177;-45
2023/03/20 01:51:18;;;;;;;16.20;11.90;;;8.20;99.90;;;;;;5033574;28;20203;-45
2023/03/20 01:53:53;;;;;;;18.30;11.77;;;8.20;99.90;;;;;;5033249;28;20230;-43
2023/03/20 01:56:19;;;;;;;17.80;11.83;;;8.20;99.90;;;;;;5033644;28;20295;-46
2023/03/20 01:58:52;;;;;;;17.60;11.40;;;8.20;99.90;;;;;;5033277;28;20736;-46
2023/03/20 02:01:18;;;;;;;15.67;10.80;;;8.10;99.90;;;;;;5033377;28;20307;-44
2023/03/20 02:03:47;;;;;;;13.90;9.87;;;8.10;99.90;;;;;;5033520;28;20581;-46
2023/03/20 02:06:13;;;;;;;13.70;9.00;;;8.00;99.90;;;;;;5033468;28;20191;-45
2023/03/20 02:08:46;;;;;;;14.90;9.93;;;8.00;99.90;;;;;;5033215;28;20179;-46
2023/03/20 02:11:12;;;;;;;12.20;8.70;;;7.90;99.90;;;;;;5033239;28;20706;-46
2023/03/20 02:13:38;;;;;;;13.07;8.37;;;7.90;99.90;;;;;;5033100;28;20222;-46
2023/03/20 02:16:09;;;;;;;13.80;8.97;;;7.70;99.90;;;;;;5033225;28;20211;-46
2023/03/20 02:18:35;;;;;;;13.70;8.93;;;7.70;99.90;;;;;;5033356;28;20176;-45
2023/03/20 02:21:16;;;;;;;11.70;8.13;;;7.60;99.90;;;;;;5033929;28;20222;-46
2023/03/20 02:24:19;;;;;;;11.93;8.37;;;7.60;99.90;;;;;;5031772;28;20172;-46
2023/03/20 02:27:01;;;;;;;13.07;8.73;;;7.50;99.90;;;;;;5033097;28;20583;-43
2023/03/20 02:30:08;;;;;;;14.83;9.03;;;7.50;99.90;;;;;;5033218;28;20184;-46
2023/03/20 02:33:11;;;;;;;10.87;7.90;;;7.40;99.90;;;;;;5032479;28;20259;-44
2023/03/20 02:36:26;;;;;;;11.60;7.13;;;7.30;99.90;;;;;;5033345;28;20226;-45
2023/03/20 02:39:13;;;;;;;13.23;8.13;;;7.20;99.90;;;;;;5032980;28;20168;-46
2023/03/20 02:41:48;;;;;;;13.10;8.47;;;7.20;99.90;;;;;;5033238;28;20242;-45
2023/03/20 02:44:39;;;;;;;14.67;7.80;;;7.10;99.90;;;;;;5032817;28;20171;-45
2023/03/20 02:47:13;;;;;;;13.53;7.53;;;7.10;99.90;;;;;;5033218;28;20515;-47
2023/03/20 02:49:39;;;;;;;12.00;8.20;;;7.00;99.90;;;;;;5032914;28;20170;-44
2023/03/20 02:52:21;;;;;;;12.03;7.47;;;7.00;99.90;;;;;;5032963;28;20203;-48
2023/03/20 02:54:57;;;;;;;13.77;8.03;;;7.00;99.90;;;;;;5033132;28;20172;-45
2023/03/20 02:57:33;;;;;;;12.83;8.00;;;6.90;99.90;;;;;;5033159;28;20173;-45
2023/03/20 03:00:09;;;;;;;12.30;7.67;;;6.90;99.90;;;;;;5033009;28;20191;-46
2023/03/20 03:02:38;;;;;;;14.00;7.77;;;6.80;99.90;;;;;;5032972;28;20177;-48
2023/03/20 03:05:21;;;;;;;13.10;7.70;;;6.80;99.90;;;;;;5033115;28;20185;-50
2023/03/20 03:07:50;;;;;;;10.37;7.07;;;6.70;99.90;;;;;;5036187;28;20212;-50
2023/03/20 03:10:26;;;;;;;10.20;7.17;;;6.70;99.90;;;;;;5036304;28;20186;-49
2023/03/20 03:12:55;;;;;;;11.30;7.30;;;6.70;99.90;;;;;;5036905;28;20257;-51
2023/03/20 03:15:28;;;;;;;9.87;6.63;;;6.60;99.90;;;;;;5036237;28;20178;-50
2023/03/20 03:17:55;;;;;;;12.83;7.90;;;6.50;99.90;;;;;;5038380;28;20647;-51
2023/03/20 03:20:25;;;;;;;11.63;7.87;;;6.50;99.90;;;;;;5036853;28;20584;-49
2023/03/20 03:22:51;;;;;;;13.30;7.90;;;6.40;99.90;;;;;;5037117;28;20192;-49
2023/03/20 03:25:17;;;;;;;12.90;7.57;;;6.40;99.90;;;;;;5035960;28;20200;-49
2023/03/20 03:27:46;;;;;;;12.63;7.73;;;6.30;99.90;;;;;;5035811;28;20197;-52
2023/03/20 03:30:26;;;;;;;11.97;7.80;;;6.30;99.90;;;;;;5035735;28;20185;-51
2023/03/20 03:33:24;;;;;;;14.03;7.93;;;6.30;99.90;;;;;;5034473;28;20173;-49
2023/03/20 03:35:54;;;;;;;12.90;8.03;;;6.30;99.90;;;;;;5036044;28;20158;-52
2023/03/20 03:38:29;;;;;;;14.23;8.40;;;6.30;99.90;;;;;;5036451;28;20180;-50
2023/03/20 03:41:00;;;;;;;11.67;7.70;;;6.30;99.90;;;;;;5035610;28;20226;-51
2023/03/20 03:43:47;;;;;;;14.67;8.70;;;6.30;99.90;;;;;;5035861;28;20173;-50
2023/03/20 03:46:25;;;;;;;11.57;7.83;;;6.20;99.90;;;;;;5035753;28;20165;-50
2023/03/20 03:48:55;;;;;;;16.77;8.80;;;6.20;99.90;;;;;;5035354;28;20185;-49
2023/03/20 03:51:24;;;;;;;15.10;8.57;;;6.30;99.90;;;;;;5035633;28;20201;-50
2023/03/20 03:54:21;;;;;;;13.93;8.70;;;6.20;99.90;;;;;;5035554;28;20196;-50
2023/03/20 03:56:48;;;;;;;12.37;8.57;;;6.30;99.90;;;;;;5023380;28;20702;-51
2023/03/20 03:59:23;;;;;;;16.77;8.93;;;6.30;99.90;;;;;;5035220;28;20173;-48
2023/03/20 04:01:51;;;;;;;17.23;9.17;;;6.30;99.90;;;;;;5035580;28;20204;-50
2023/03/20 04:04:18;;;;;;;16.93;9.70;;;6.30;99.90;;;;;;5035424;28;20215;-49
2023/03/20 04:06:44;;;;;;;21.03;10.10;;;6.30;99.90;;;;;;5035030;28;20259;-52
2023/03/20 04:09:09;;;;;;;17.13;10.10;;;6.30;99.90;;;;;;5035006;28;20273;-51
2023/03/20 04:11:35;;;;;;;20.57;10.73;;;6.30;99.90;;;;;;5035474;28;20196;-52
2023/03/20 04:14:01;;;;;;;19.03;10.30;;;6.30;99.90;;;;;;5034943;28;20648;-50
2023/03/20 04:16:26;;;;;;;19.33;11.33;;;6.20;99.90;;;;;;5033446;28;20186;-52
2023/03/20 04:18:54;;;;;;;17.17;10.17;;;6.20;99.90;;;;;;5034740;28;20177;-51
2023/03/20 04:21:20;;;;;;;18.33;10.40;;;6.20;99.90;;;;;;5035301;28;20220;-50
2023/03/20 04:23:45;;;;;;;17.60;10.90;;;6.10;99.90;;;;;;5034994;28;20177;-50
2023/03/20 04:26:11;;;;;;;19.43;10.63;;;6.10;99.90;;;;;;5034702;28;20176;-52
2023/03/20 04:28:37;;;;;;;15.33;10.07;;;6.10;99.90;;;;;;5034514;28;20193;-49
2023/03/20 04:31:03;;;;;;;18.03;9.83;;;6.10;99.90;;;;;;5034526;28;20201;-50
2023/03/20 04:33:30;;;;;;;15.93;9.13;;;6.10;99.90;;;;;;5034618;28;20189;-51
2023/03/20 04:35:56;;;;;;;14.27;8.90;;;6.10;99.90;;;;;;5034627;28;20181;-52
2023/03/20 04:38:22;;;;;;;17.07;9.50;;;6.10;99.90;;;;;;5034748;28;20279;-52
2023/03/20 04:40:49;;;;;;;17.47;9.93;;;6.10;99.90;;;;;;5034439;28;20220;-50
2023/03/20 04:43:15;;;;;;;17.53;9.33;;;6.10;99.90;;;;;;5034605;28;20185;-50
2023/03/20 04:45:41;;;;;;;15.97;9.37;;;6.10;99.90;;;;;;5034584;28;20197;-52
2023/03/20 04:48:06;;;;;;;17.50;10.27;;;6.10;99.90;;;;;;5034545;28;20207;-50
2023/03/20 04:50:32;;;;;;;17.03;9.70;;;6.00;99.90;;;;;;5034165;28;20290;-50
2023/03/20 04:52:58;;;;;;;16.30;9.57;;;6.00;99.90;;;;;;5034174;28;20184;-52
2023/03/20 04:55:24;;;;;;;17.00;9.83;;;6.00;99.90;;;;;;5034259;28;20192;-53
2023/03/20 04:57:50;;;;;;;16.77;9.70;;;5.90;99.90;;;;;;5034358;28;20188;-51
2023/03/20 05:00:16;;;;;;;16.03;9.70;;;5.90;99.90;;;;;;5033869;28;20207;-52
2023/03/20 05:02:42;;;;;;;15.03;9.13;;;5.90;99.90;;;;;;5034276;28;20202;-52
2023/03/20 05:05:07;;;;;;;15.20;9.10;;;5.90;99.90;;;;;;5033979;28;20676;-52
2023/03/20 05:07:33;;;;;;;12.33;8.47;;;5.90;99.90;;;;;;5034007;28;20208;-50
2023/03/20 05:09:59;;;;;;;18.00;9.30;;;5.80;99.90;;;;;;5033895;28;20173;-50
2023/03/20 05:12:26;;;;;;;16.70;8.87;;;5.80;99.90;;;;;;5034046;28;20203;-50
2023/03/20 05:14:51;;;;;;;15.80;8.97;;;5.70;99.90;;;;;;5034084;28;20268;-53
2023/03/20 05:17:18;;;;;;;11.87;7.77;;;5.70;99.90;;;;;;5034183;28;20284;-51
2023/03/20 05:19:44;;;;;;;15.63;8.63;;;5.70;99.90;;;;;;5033713;28;20177;-50
2023/03/20 05:22:10;;;;;;;14.23;8.73;;;5.60;99.90;;;;;;5035537;28;20220;-50
2023/03/20 05:24:35;;;;;;;14.83;7.90;;;5.70;99.90;;;;;;5033873;28;20184;-52
2023/03/20 05:27:01;;;;;;;13.10;8.27;;;5.70;99.90;;;;;;5033739;28;20196;-51
2023/03/20 05:29:26;;;;;;;12.33;7.67;;;5.70;99.90;;;;;;5033325;28;20165;-53
2023/03/20 05:31:54;;;;;;;11.37;6.87;;;5.70;99.90;;;;;;5033556;28;20251;-52
2023/03/20 05:34:20;;;;;;;15.47;8.00;;;5.70;99.90;;;;;;5033829;28;20185;-49
2023/03/20 05:36:46;;;;;;;15.53;7.60;;;5.70;99.90;;;;;;5034662;28;20181;-49
2023/03/20 05:39:12;;;;;;;11.47;6.93;;;5.70;99.90;;;;;;5034667;28;20185;-50
2023/03/20 05:41:37;;;;;;;11.97;7.40;;;5.70;99.90;;;;;;5034757;28;20213;-51
2023/03/20 05:44:03;;;;;;;14.00;6.90;;;5.80;99.90;;;;;;5035331;28;20227;-51
2023/03/20 05:46:28;;;;;;;12.30;7.27;;;5.70;99.90;;;;;;5035088;28;20177;-50
2023/03/20 05:48:54;;;;;;;18.17;7.77;;;5.80;99.90;;;;;;5033716;28;20256;-52
2023/03/20 05:51:20;;;;;;;14.53;7.43;;;5.80;99.90;;;;;;5033591;28;20204;-49
2023/03/20 05:53:45;;;;;;;12.27;7.40;;;5.80;99.90;;;;;;5033432;28;20189;-50
2023/03/20 05:56:11;;;;;;;11.27;6.67;;;5.80;99.90;;;;;;5033422;28;20189;-50
2023/03/20 05:58:37;;;;;;;15.30;7.37;;;5.80;99.90;;;;;;5033556;28;20192;-52
2023/03/20 06:01:03;;;;;;;11.30;7.07;;;5.90;99.90;;;;;;5033518;28;20212;-51
2023/03/20 06:03:28;;;;;;;11.50;7.67;;;5.80;99.90;;;;;;5033578;28;20499;-52
2023/03/20 06:05:54;;;;;;;10.13;7.10;;;5.90;99.90;;;;;;5033228;28;20181;-51
2023/03/20 06:08:19;;;;;;;11.80;6.63;;;5.90;99.90;;;;;;5033432;28;20188;-49
2023/03/20 06:10:45;;;;;;;12.60;7.47;;;5.90;99.90;;;;;;5033114;28;20201;-53
2023/03/20 06:13:10;;;;;;;14.90;7.27;;;5.90;99.90;;;;;;5033393;28;20185;-51
2023/03/20 06:15:36;;;;;;;13.00;7.17;;;6.00;99.90;;;;;;5033362;28;20267;-50
2023/03/20 06:18:02;;;;;;;13.87;7.17;;;6.00;99.90;;;;;;5033262;28;20184;-54
2023/03/20 06:20:27;;;;;;;12.77;6.37;;;6.00;99.90;;;;;;5032904;28;20212;-50
2023/03/20 06:22:53;;;;;;;12.53;7.10;;;6.00;99.90;;;;;;5033739;28;20180;-53
2023/03/20 06:25:19;;;;;;;13.47;6.97;;;6.10;99.90;;;;;;5033363;28;20256;-51
2023/03/20 06:27:46;;;;;;;14.10;6.67;;;6.10;99.90;;;;;;5032954;28;20227;-52
2023/03/20 06:30:13;;;;;;;10.70;6.43;;;6.10;99.90;;;;;;5033149;28;20552;-51
2023/03/20 06:32:39;;;;;;;11.50;6.40;;;6.10;99.90;;;;;;5032975;28;20188;-51
2023/03/20 06:35:06;;;;;;;11.17;6.37;;;6.10;99.90;;;;;;5033105;28;20181;-51
2023/03/20 06:37:32;;;;;;;11.50;6.73;;;6.10;99.90;;;;;;5033140;28;20547;-50
2023/03/20 06:39:58;;;;;;;11.87;7.57;;;6.20;99.90;;;;;;5033422;28;20204;-52
2023/03/20 06:42:23;;;;;;;11.97;6.57;;;6.20;99.90;;;;;;5036829;28;20205;-52
2023/03/20 06:44:49;;;;;;;12.73;7.10;;;6.30;99.90;;;;;;5036879;28;20181;-52
2023/03/20 06:47:15;;;;;;;14.50;7.23;;;6.30;99.90;;;;;;5036847;28;20185;-52
2023/03/20 06:49:41;;;;;;;11.47;6.50;;;6.30;99.90;;;;;;5036573;28;20212;-48
2023/03/20 06:52:09;;;;;;;10.70;6.90;;;6.40;99.90;;;;;;5036757;28;20209;-47
2023/03/20 06:54:34;;;;;;;10.37;6.07;;;6.40;99.90;;;;;;5036432;28;20258;-46
2023/03/20 06:57:00;;;;;;;13.73;6.33;;;6.50;99.90;;;;;;5035201;28;20189;-46
2023/03/20 06:59:26;;;;;;;10.43;6.30;;;6.50;99.90;;;;;;5036601;28;20595;-47
2023/03/20 07:01:51;;;;;;;9.90;6.07;;;6.60;99.90;;;;;;5036201;28;20217;-48
2023/03/20 07:04:17;;;;;;;10.77;6.07;;;6.60;99.90;;;;;;5036252;28;20180;-48
2023/03/20 07:06:42;;;;;;;10.57;6.10;;;6.60;99.90;;;;;;5036770;28;20230;-46
2023/03/20 07:09:08;;;;;;;11.90;6.70;;;6.70;99.90;;;;;;5036126;28;20191;-46
2023/03/20 07:11:34;;;;;;;12.20;6.67;;;6.70;99.90;;;;;;5036062;28;20291;-48
2023/03/20 07:14:00;;;;;;;12.40;6.57;;;6.80;99.90;;;;;;5036594;28;20177;-48
2023/03/20 07:16:26;;;;;;;13.60;6.70;;;6.80;99.90;;;;;;5037040;28;20548;-46
2023/03/20 07:18:52;;;;;;;12.47;6.40;;;6.80;99.90;;;;;;5036349;28;20185;-48
2023/03/20 07:21:21;;;;;;;11.13;6.60;;;6.90;99.90;;;;;;5036554;28;20224;-45
2023/03/20 07:23:46;;;;;;;13.47;6.77;;;6.90;99.90;;;;;;5036555;28;20181;-47
2023/03/20 07:26:12;;;;;;;14.73;6.70;;;7.00;99.90;;;;;;5034666;28;20184;-49
2023/03/20 07:28:38;;;;;;;12.33;6.97;;;7.00;99.90;;;;;;5035909;28;20242;-46
2023/03/20 07:31:04;;;;;;;14.73;6.77;;;7.10;99.90;;;;;;5035844;28;20568;-46
2023/03/20 07:33:30;;;;;;;13.17;6.93;;;7.10;99.90;;;;;;5036042;28;20181;-47
2023/03/20 07:35:56;;;;;;;12.50;7.03;;;7.20;99.90;;;;;;5035779;28;20183;-45
2023/03/20 07:38:22;;;;;;;16.73;7.13;;;7.20;99.90;;;;;;5035914;28;20195;-45
2023/03/20 07:40:48;;;;;;;15.70;7.27;;;7.30;99.90;;;;;;5035853;28;20227;-47
2023/03/20 07:43:15;;;;;;;12.30;7.37;;;7.40;99.90;;;;;;5035559;28;20551;-46
2023/03/20 07:45:40;;;;;;;15.30;7.10;;;7.40;99.90;;;;;;5035604;28;20196;-48
2023/03/20 07:48:06;;;;;;;14.53;7.10;;;7.50;99.90;;;;;;5034326;28;20224;-49
2023/03/20 07:50:32;;;;;;;16.60;6.63;;;7.50;99.90;;;;;;5035354;28;20576;-47
2023/03/20 07:52:58;;;;;;;13.40;7.03;;;7.60;99.90;;;;;;5034751;28;20188;-48
2023/03/20 07:55:23;;;;;;;14.30;7.03;;;7.60;99.90;;;;;;5035406;28;20188;-47
2023/03/20 07:57:49;;;;;;;14.93;6.77;;;7.70;99.90;;;;;;5035513;28;20180;-47
2023/03/20 08:00:16;;;;;;;11.47;6.67;;;7.70;99.90;;;;;;5035344;28;20234;-46
2023/03/20 08:02:42;;;;;;;10.83;5.17;;;7.80;99.90;;;;;;5035029;28;20203;-47
2023/03/20 08:05:08;;;;;;;13.27;6.63;;;7.80;99.90;;;;;;5035118;28;20177;-45
2023/03/20 08:07:34;;;;;;;11.03;6.57;;;7.80;99.90;;;;;;5035417;28;20181;-46
2023/03/20 08:10:00;;;;;;;16.83;7.30;;;7.90;99.90;;;;;;5035283;28;20189;-47
2023/03/20 08:12:26;;;;;;;15.53;7.03;;;7.90;99.90;;;;;;5035248;28;20633;-47
2023/03/20 08:14:51;;;;;;;12.40;6.73;;;8.00;99.90;;;;;;5035004;28;20184;-45
2023/03/20 08:17:17;;;;;;;11.27;6.63;;;8.00;99.90;;;;;;5034968;28;20173;-46
2023/03/20 08:19:44;;;;;;;11.00;6.10;;;8.00;99.90;;;;;;5035042;28;20181;-46
2023/03/20 08:22:09;;;;;;;11.20;6.57;;;8.10;99.90;;;;;;5036102;28;20209;-48
2023/03/20 08:24:35;;;;;;;12.27;5.27;;;8.10;99.90;;;;;;5034847;28;20227;-46
2023/03/20 08:27:01;;;;;;;10.93;5.97;;;8.20;99.90;;;;;;5035122;28;20197;-48
2023/03/20 08:29:26;;;;;;;12.00;6.07;;;8.20;99.90;;;;;;5034746;28;20181;-49
2023/03/20 08:31:52;;;;;;;15.27;6.17;;;8.30;99.90;;;;;;5034622;28;20229;-48
2023/03/20 08:34:17;;;;;;;14.87;6.17;;;8.40;99.90;;;;;;5035447;28;20194;-49
2023/03/20 08:36:43;;;;;;;10.43;4.97;;;8.50;99.90;;;;;;5034833;28;20188;-46
2023/03/20 08:39:09;;;;;;;12.73;6.10;;;8.60;99.90;;;;;;5034521;28;20183;-46
2023/03/20 08:41:38;;;;;;;12.17;5.67;;;8.70;99.90;;;;;;5034670;28;20219;-47
2023/03/20 08:44:05;;;;;;;8.40;4.50;;;8.70;99.90;;;;;;5034693;28;20207;-48
2023/03/20 08:46:31;;;;;;;10.17;5.73;;;8.80;99.90;;;;;;5034782;28;20181;-47
2023/03/20 08:48:57;;;;;;;11.27;5.50;;;8.80;99.90;;;;;;5034585;28;20557;-47
2023/03/20 08:51:23;;;;;;;10.57;5.43;;;8.80;99.90;;;;;;5034225;28;20197;-49
2023/03/20 08:53:49;;;;;;;12.73;5.53;;;8.80;99.90;;;;;;5034228;28;20208;-48
2023/03/20 08:56:15;;;;;;;9.90;5.23;;;8.80;99.90;;;;;;5034541;28;20661;-47
2023/03/20 08:58:41;;;;;;;8.93;4.60;;;8.80;99.90;;;;;;5035235;28;20191;-47
2023/03/20 09:01:08;;;;;;;10.80;5.37;;;8.80;99.90;;;;;;5034144;28;20700;-49
2023/03/20 09:03:35;;;;;;;8.53;4.47;;;8.90;99.90;;;;;;5033103;28;20662;-48
2023/03/20 09:06:03;;;;;;;10.07;5.03;;;8.80;99.90;;;;;;5034689;28;20219;-46
2023/03/20 09:08:28;;;;;;;14.53;5.00;;;8.90;99.90;;;;;;5033990;28;20232;-46
2023/03/20 09:10:54;;;;;;;9.70;4.50;;;9.00;99.90;;;;;;5033954;28;20301;-49
2023/03/20 09:13:21;;;;;;;13.33;5.47;;;9.00;99.90;;;;;;5033995;28;20185;-47
2023/03/20 09:15:47;;;;;;;12.43;5.30;;;9.00;99.90;;;;;;5034129;28;20555;-49
2023/03/20 09:18:12;;;;;;;10.07;4.83;;;9.00;99.90;;;;;;5034278;28;20187;-47
2023/03/20 09:20:38;;;;;;;9.57;4.30;;;9.00;99.90;;;;;;5034035;28;20215;-47
2023/03/20 09:23:04;;;;;;;7.90;3.83;;;9.00;99.90;;;;;;5036424;28;20184;-47
2023/03/20 09:25:29;;;;;;;9.27;4.43;;;9.00;99.90;;;;;;5033748;28;20184;-46
2023/03/20 09:27:55;;;;;;;12.10;5.03;;;9.00;99.90;;;;;;5033561;28;20251;-47
2023/03/20 09:30:22;;;;;;;9.33;3.50;;;8.90;99.90;;;;;;5033802;28;20290;-47
2023/03/20 09:32:49;;;;;;;9.43;4.30;;;9.00;99.90;;;;;;5033551;28;20530;-47
2023/03/20 09:35:15;;;;;;;11.73;4.50;;;9.00;99.90;;;;;;5033533;28;20188;-46
2023/03/20 09:37:40;;;;;;;10.97;4.20;;;9.10;99.90;;;;;;5033818;28;20189;-43
2023/03/20 09:40:06;;;;;;;9.27;4.30;;;9.10;99.90;;;;;;5033415;28;20215;-45
2023/03/20 09:42:35;;;;;;;8.17;4.03;;;9.10;99.90;;;;;;5033526;28;20188;-45
2023/03/20 09:45:26;;;;;;;9.67;4.17;;;9.20;99.90;;;;;;5033820;28;20545;-45
2023/03/20 09:47:57;;;;;;;8.43;4.10;;;9.20;99.90;;;;;;5033761;28;20171;-45
2023/03/20 09:50:26;;;;;;;11.37;3.97;;;9.30;99.90;;;;;;5033673;28;20216;-48
2023/03/20 09:53:15;;;;;;;9.20;3.97;;;9.30;99.90;;;;;;5034009;28;20211;-47
2023/03/20 09:55:42;;;;;;;12.33;4.57;;;9.40;99.90;;;;;;5033714;28;20173;-47
2023/03/20 09:58:17;;;;;;;6.90;3.57;;;9.40;99.90;;;;;;5033533;28;20192;-44
2023/03/20 10:00:45;;;;;;;12.43;5.30;;;9.30;99.90;;;;;;5033138;28;20235;-45
2023/03/20 10:03:40;;;;;;;10.37;4.40;;;9.30;99.90;;;;;;5032024;28;20245;-44
2023/03/20 10:06:12;;;;;;;7.00;4.03;;;9.30;99.90;;;;;;5033520;28;20623;-41
2023/03/20 10:08:38;;;;;;;10.17;3.73;;;9.20;99.90;;;;;;5033183;28;20625;-45
2023/03/20 10:11:22;;;;;;;7.27;3.53;;;9.30;99.90;;;;;;5033288;28;20212;-46
2023/03/20 10:14:13;;;;;;;8.40;3.47;;;9.20;99.90;;;;;;5033535;28;20574;-46
2023/03/20 10:17:10;;;;;;;7.10;3.63;;;9.20;99.90;;;;;;5036705;28;20177;-46
2023/03/20 10:20:03;;;;;;;7.63;2.93;;;9.20;99.90;;;;;;5037265;28;20215;-46
2023/03/20 10:22:35;;;;;;;10.03;2.90;;;9.20;99.90;;;;;;5038666;28;20164;-46
2023/03/20 10:25:15;;;;;;;8.67;2.67;;;9.20;99.90;;;;;;5037022;28;20196;-47
2023/03/20 10:27:56;;;;;;;7.17;3.07;;;9.20;99.90;;;;;;5037121;28;20189;-48
2023/03/20 10:30:40;;;;;;;6.87;2.13;;;9.20;99.90;;;;;;5036877;28;20676;-46
2023/03/20 10:33:41;;;;;;;12.20;3.40;;;9.20;99.90;;;;;;5037311;28;20188;-47
2023/03/20 10:36:20;;;;;;;9.30;3.40;;;9.20;99.90;;;;;;5037370;28;20184;-49
2023/03/20 10:38:51;;;;;;;8.80;3.10;;;9.10;99.90;;;;;;5037098;28;20239;-46
2023/03/20 10:41:22;;;;;;;10.40;3.40;;;9.10;99.90;;;;;;5036866;28;20209;-46
2023/03/20 10:43:50;;;;;;;9.27;2.93;;;9.10;99.90;;;;;;5036964;28;20157;-47
2023/03/20 10:46:27;;;;;;;6.87;2.80;;;9.10;99.90;;;;;;5036640;28;20169;-46
2023/03/20 10:49:18;;;;;;;10.80;3.17;;;9.10;99.90;;;;;;5036825;28;20164;-46
2023/03/20 10:51:51;;;;;;;10.33;3.10;;;9.00;99.90;;;;;;5036970;28;20189;-46
2023/03/20 10:54:35;;;;;;;7.27;2.57;;;9.00;99.90;;;;;;5036478;28;20173;-46
2023/03/20 10:57:06;;;;;;;7.10;3.43;;;9.00;99.90;;;;;;5036371;28;20231;-48
2023/03/20 10:59:47;;;;;;;9.63;3.37;;;9.00;99.90;;;;;;5035204;28;20235;-47
2023/03/20 11:02:15;;;;;;;10.40;2.80;;;9.10;99.90;;;;;;5036466;28;20213;-48
2023/03/20 11:04:41;;;;;;;13.10;3.60;;;9.10;99.90;;;;;;5036586;28;20195;-49
2023/03/20 11:07:18;;;;;;;12.90;3.57;;;9.10;99.90;;;;;;5036262;28;20260;-48
2023/03/20 11:09:44;;;;;;;10.67;3.27;;;9.10;99.90;;;;;;5036544;28;20177;-47
2023/03/20 11:12:18;;;;;;;9.47;2.20;;;9.20;99.90;;;;;;5036638;28;20205;-48
2023/03/20 11:14:44;;;;;;;5.17;2.30;;;9.10;99.90;;;;;;5037028;28;20233;-48
2023/03/20 11:17:11;;;;;;;7.57;3.03;;;9.00;99.90;;;;;;5036094;28;20664;-47
2023/03/20 11:19:39;;;;;;;10.47;3.40;;;9.00;99.90;;;;;;5036257;28;20656;-48
2023/03/20 11:22:25;;;;;;;5.37;2.27;;;8.90;99.90;;;;;;5036070;28;20216;-47
2023/03/20 11:24:53;;;;;;;9.57;2.60;;;8.90;99.90;;;;;;5036281;28;20165;-48
2023/03/20 11:27:25;;;;;;;7.67;2.73;;;8.90;99.90;;;;;;5034856;28;20555;-47
2023/03/20 11:29:52;;;;;;;5.80;2.47;;;8.90;99.90;;;;;;5036259;28;20671;-46
2023/03/20 11:32:30;;;;;;;7.37;3.07;;;8.90;99.90;;;;;;5035738;28;20254;-46
2023/03/20 11:35:08;;;;;;;6.33;2.80;;;8.90;99.90;;;;;;5035798;28;20183;-47
2023/03/20 11:37:35;;;;;;;7.50;3.23;;;8.90;99.90;;;;;;5035794;28;20165;-48
2023/03/20 11:40:15;;;;;;;11.93;3.13;;;8.80;99.90;;;;;;5035672;28;20675;-48
2023/03/20 11:43:02;;;;;;;7.67;2.40;;;8.80;99.90;;;;;;5035903;28;20177;-47
2023/03/20 11:45:35;;;;;;;8.90;2.80;;;8.80;99.90;;;;;;5035731;28;20156;-47
2023/03/20 11:48:02;;;;;;;5.83;2.10;;;8.80;99.90;;;;;;5035784;28;20184;-46
2023/03/20 11:50:36;;;;;;;10.37;2.60;;;8.80;99.90;;;;;;5035901;28;20567;-47
2023/03/20 11:53:16;;;;;;;3.70;2.20;;;8.80;99.90;;;;;;5035393;28;20566;-47
2023/03/20 11:55:45;;;;;;;5.37;2.33;;;8.80;99.90;;;;;;5035501;28;20172;-48
2023/03/20 11:58:15;;;;;;;9.00;2.50;;;8.90;99.90;;;;;;5035255;28;20184;-47
2023/03/20 12:00:41;;;;;;;4.63;2.10;;;8.90;99.90;;;;;;5035384;28;20215;-49
2023/03/20 12:03:40;;;;;;;5.93;2.30;;;9.00;99.90;;;;;;5035485;28;20183;-46
2023/03/20 12:06:17;;;;;;;4.70;2.00;;;9.10;99.90;;;;;;5031206;28;20563;-48
2023/03/20 12:09:00;;;;;;;8.33;2.30;;;9.30;99.90;;;;;;5035350;28;20196;-49
2023/03/20 12:11:35;;;;;;;10.33;2.47;;;9.30;99.90;;;;;;5035330;28;20205;-48
2023/03/20 12:14:03;;;;;;;4.60;2.30;;;9.40;99.90;;;;;;5033825;28;20175;-48
2023/03/20 12:16:30;;;;;;;9.00;2.33;;;9.50;99.90;;;;;;5035819;28;20185;-49
2023/03/20 12:19:03;;;;;;;11.90;2.57;;;9.60;99.90;;;;;;5035230;28;20214;-49
2023/03/20 12:21:42;;;;;;;7.77;2.13;;;9.60;99.90;;;;;;5035366;28;20679;-49
2023/03/20 12:24:28;;;;;;;5.93;2.23;;;9.70;99.90;;;;;;5035176;28;20158;-48
2023/03/20 12:27:15;;;;;;;6.27;2.03;;;9.80;99.90;;;;;;5034841;28;20185;-49
2023/03/20 12:30:08;;;;;;;5.67;2.60;;;9.90;99.90;;;;;;5034781;28;20727;-48
2023/03/20 12:32:59;;;;;;;7.27;2.20;;;10.00;99.90;;;;;;5035049;28;20569;-48
2023/03/20 12:35:34;;;;;;;7.23;2.30;;;10.10;99.90;;;;;;5034657;28;20173;-48
2023/03/20 12:38:00;;;;;;;8.33;2.17;;;10.20;99.90;;;;;;5049815;22;20224;-49
2023/03/20 12:40:43;;;;;;;7.80;2.07;;;10.40;99.90;;;;;;5034997;28;20308;-50
2023/03/20 12:43:09;;;;;;;8.97;2.53;;;10.30;99.90;;;;;;5034717;28;20291;-48
2023/03/20 12:45:40;;;;;;;12.17;2.70;;;10.30;99.90;;;;;;5035101;28;20215;-50
2023/03/20 12:48:17;;;;;;;9.17;2.70;;;10.30;99.90;;;;;;5035298;28;20222;-49
2023/03/20 12:50:53;;;;;;;9.33;2.80;;;10.40;99.90;;;;;;5035487;28;20211;-49
2023/03/20 12:53:40;;;;;;;8.60;2.73;;;10.30;99.90;;;;;;5035659;28;20255;-48
2023/03/20 12:56:35;;;;;;;11.23;2.77;;;10.40;99.90;;;;;;5035907;28;20224;-50
2023/03/20 12:59:15;;;;;;;9.80;2.80;;;10.40;99.90;;;;;;5035564;28;20165;-48
2023/03/20 13:02:03;;;;;;;5.90;2.50;;;10.50;99.90;;;;;;5035403;28;20208;-50
2023/03/20 13:04:57;;;;;;;10.57;2.70;;;10.50;99.90;;;;;;5040201;28;20165;-49